sensor_id;sensor_type;location;lat;lon;timestamp;P1;durP1;ratioP1;P2;durP2;ratioP2
3979;SDS011;2004;52.452;13.120;2023-03-24T00:00:06;5.37;;;2.40;;
3979;SDS011;2004;52.452;13.120;2023-03-24T00:08:00;12.73;;;3.10;;
3979;SDS011;2004;52.452;13.120;2023-03-24T00:15:52;2.60;;;2.23;;
3979;SDS011;2004;52.452;13.120;2023-03-24T00:23:46;2.50;;;2.13;;
3979;SDS011;2004;52.452;13.120;2023-03-24T00:31:38;2.73;;;2.20;;
3979;SDS011;2004;52.452;13.120;2023-03-24T00:39:29;2.73;;;2.30;;
3979;SDS011;2004;52.452;13.120;2023-03-24T00:47:20;3.07;;;1.93;;
3979;SDS011;2004;52.452;13.120;2023-03-24T00:55:15;3.77;;;2.33;;
3979;SDS011;2004;52.452;13.120;2023-03-24T01:03:07;2.60;;;2.40;;
3979;SDS011;2004;52.452;13.120;2023-03-24T01:10:58;3.00;;;2.50;;
3979;SDS011;2004;52.452;13.120;2023-03-24T01:18:50;3.03;;;2.83;;
3979;SDS011;2004;52.452;13.120;2023-03-24T01:26:41;2.20;;;2.10;;
3979;SDS011;2004;52.452;13.120;2023-03-24T01:34:32;4.00;;;2.30;;
3979;SDS011;2004;52.452;13.120;2023-03-24T01:42:25;4.63;;;2.60;;
3979;SDS011;2004;52.452;13.120;2023-03-24T01:50:17;2.13;;;2.03;;
3979;SDS011;2004;52.452;13.120;2023-03-24T01:58:07;1.70;;;1.60;;
3979;SDS011;2004;52.452;13.120;2023-03-24T02:05:59;2.20;;;2.10;;
3979;SDS011;2004;52.452;13.120;2023-03-24T02:13:51;3.17;;;2.00;;
3979;SDS011;2004;52.452;13.120;2023-03-24T02:54:14;2.63;;;2.43;;
3979;SDS011;2004;52.452;13.120;2023-03-24T03:02:07;2.53;;;2.33;;
3979;SDS011;2004;52.452;13.120;2023-03-24T03:10:05;2.70;;;2.50;;
3979;SDS011;2004;52.452;13.120;2023-03-24T03:17:59;3.17;;;2.67;;
3979;SDS011;2004;52.452;13.120;2023-03-24T03:25:58;3.73;;;2.30;;
3979;SDS011;2004;52.452;13.120;2023-03-24T03:34:07;4.40;;;2.70;;
3979;SDS011;2004;52.452;13.120;2023-03-24T03:42:06;2.67;;;2.47;;
3979;SDS011;2004;52.452;13.120;2023-03-24T03:49:57;3.17;;;2.90;;
3979;SDS011;2004;52.452;13.120;2023-03-24T03:57:48;2.90;;;2.70;;
3979;SDS011;2004;52.452;13.120;2023-03-24T04:14:01;3.77;;;2.90;;
3979;SDS011;2004;52.452;13.120;2023-03-24T04:22:23;3.80;;;3.13;;
3979;SDS011;2004;52.452;13.120;2023-03-24T04:30:41;3.80;;;3.50;;
3979;SDS011;2004;52.452;13.120;2023-03-24T04:38:30;3.00;;;2.70;;
3979;SDS011;2004;52.452;13.120;2023-03-24T04:46:24;5.00;;;3.57;;
3979;SDS011;2004;52.452;13.120;2023-03-24T04:54:16;3.80;;;3.50;;
3979;SDS011;2004;52.452;13.120;2023-03-24T05:02:07;4.10;;;3.50;;
3979;SDS011;2004;52.452;13.120;2023-03-24T05:09:58;4.83;;;4.27;;
3979;SDS011;2004;52.452;13.120;2023-03-24T05:17:49;4.23;;;3.83;;
3979;SDS011;2004;52.452;13.120;2023-03-24T05:25:41;5.60;;;4.40;;
3979;SDS011;2004;52.452;13.120;2023-03-24T05:33:32;11.40;;;4.93;;
3979;SDS011;2004;52.452;13.120;2023-03-24T05:41:22;5.90;;;4.53;;
3979;SDS011;2004;52.452;13.120;2023-03-24T05:49:13;4.73;;;4.30;;
3979;SDS011;2004;52.452;13.120;2023-03-24T05:57:04;4.63;;;4.07;;
3979;SDS011;2004;52.452;13.120;2023-03-24T06:04:58;4.07;;;3.67;;
3979;SDS011;2004;52.452;13.120;2023-03-24T06:12:51;4.13;;;3.73;;
3979;SDS011;2004;52.452;13.120;2023-03-24T06:20:42;3.43;;;3.20;;
3979;SDS011;2004;52.452;13.120;2023-03-24T06:28:33;3.13;;;2.93;;
3979;SDS011;2004;52.452;13.120;2023-03-24T06:36:24;4.97;;;3.30;;
3979;SDS011;2004;52.452;13.120;2023-03-24T06:44:14;9.03;;;4.90;;
3979;SDS011;2004;52.452;13.120;2023-03-24T06:52:05;7.60;;;4.30;;
3979;SDS011;2004;52.452;13.120;2023-03-24T06:59:56;13.20;;;9.43;;
3979;SDS011;2004;52.452;13.120;2023-03-24T07:07:47;7.97;;;5.57;;
3979;SDS011;2004;52.452;13.120;2023-03-24T07:15:38;5.60;;;4.33;;
3979;SDS011;2004;52.452;13.120;2023-03-24T07:23:29;4.90;;;4.47;;
3979;SDS011;2004;52.452;13.120;2023-03-24T07:31:21;5.40;;;4.37;;
3979;SDS011;2004;52.452;13.120;2023-03-24T07:39:14;5.27;;;3.33;;
3979;SDS011;2004;52.452;13.120;2023-03-24T07:47:06;3.83;;;3.53;;
3979;SDS011;2004;52.452;13.120;2023-03-24T07:54:57;5.10;;;3.77;;
3979;SDS011;2004;52.452;13.120;2023-03-24T08:02:48;6.27;;;3.70;;
3979;SDS011;2004;52.452;13.120;2023-03-24T08:10:41;6.30;;;4.00;;
3979;SDS011;2004;52.452;13.120;2023-03-24T08:18:34;3.47;;;3.00;;
3979;SDS011;2004;52.452;13.120;2023-03-24T08:26:25;7.43;;;3.80;;
3979;SDS011;2004;52.452;13.120;2023-03-24T08:34:15;6.43;;;4.50;;
3979;SDS011;2004;52.452;13.120;2023-03-24T08:42:06;3.80;;;3.40;;
3979;SDS011;2004;52.452;13.120;2023-03-24T08:49:57;5.80;;;4.20;;
3979;SDS011;2004;52.452;13.120;2023-03-24T08:57:48;4.03;;;2.90;;
3979;SDS011;2004;52.452;13.120;2023-03-24T09:05:38;3.83;;;2.87;;
3979;SDS011;2004;52.452;13.120;2023-03-24T09:13:29;3.90;;;3.30;;
3979;SDS011;2004;52.452;13.120;2023-03-24T09:21:20;9.30;;;3.60;;
3979;SDS011;2004;52.452;13.120;2023-03-24T09:29:10;3.53;;;3.23;;
3979;SDS011;2004;52.452;13.120;2023-03-24T09:37:01;3.17;;;2.93;;
3979;SDS011;2004;52.452;13.120;2023-03-24T09:44:58;4.80;;;2.90;;
3979;SDS011;2004;52.452;13.120;2023-03-24T09:52:55;5.53;;;3.00;;
3979;SDS011;2004;52.452;13.120;2023-03-24T10:00:53;4.37;;;2.73;;
3979;SDS011;2004;52.452;13.120;2023-03-24T10:08:45;5.57;;;2.50;;
3979;SDS011;2004;52.452;13.120;2023-03-24T10:16:52;2.83;;;2.50;;
3979;SDS011;2004;52.452;13.120;2023-03-24T10:25:11;3.93;;;2.63;;
3979;SDS011;2004;52.452;13.120;2023-03-24T10:33:05;3.23;;;2.80;;
3979;SDS011;2004;52.452;13.120;2023-03-24T10:40:59;2.67;;;2.57;;
3979;SDS011;2004;52.452;13.120;2023-03-24T10:48:51;2.90;;;2.47;;
3979;SDS011;2004;52.452;13.120;2023-03-24T10:57:12;4.73;;;2.50;;
3979;SDS011;2004;52.452;13.120;2023-03-24T11:13:15;5.47;;;2.43;;
3979;SDS011;2004;52.452;13.120;2023-03-24T11:21:07;2.70;;;2.17;;
3979;SDS011;2004;52.452;13.120;2023-03-24T11:28:59;2.40;;;2.20;;
3979;SDS011;2004;52.452;13.120;2023-03-24T11:45:24;3.37;;;2.40;;
3979;SDS011;2004;52.452;13.120;2023-03-24T11:53:20;4.40;;;2.30;;
3979;SDS011;2004;52.452;13.120;2023-03-24T12:01:23;4.37;;;1.97;;
3979;SDS011;2004;52.452;13.120;2023-03-24T12:09:26;3.30;;;2.47;;
3979;SDS011;2004;52.452;13.120;2023-03-24T12:18:14;5.03;;;2.47;;
3979;SDS011;2004;52.452;13.120;2023-03-24T12:42:45;3.20;;;2.27;;
3979;SDS011;2004;52.452;13.120;2023-03-24T12:59:08;2.23;;;2.10;;
3979;SDS011;2004;52.452;13.120;2023-03-24T13:07:16;2.40;;;2.20;;
3979;SDS011;2004;52.452;13.120;2023-03-24T13:31:51;1.50;;;1.40;;
3979;SDS011;2004;52.452;13.120;2023-03-24T13:39:50;1.57;;;1.47;;
3979;SDS011;2004;52.452;13.120;2023-03-24T13:47:46;4.00;;;1.47;;
3979;SDS011;2004;52.452;13.120;2023-03-24T13:55:51;1.50;;;1.37;;
3979;SDS011;2004;52.452;13.120;2023-03-24T14:04:13;2.60;;;1.40;;
3979;SDS011;2004;52.452;13.120;2023-03-24T14:12:15;3.60;;;1.60;;
3979;SDS011;2004;52.452;13.120;2023-03-24T14:36:09;4.57;;;1.57;;
3979;SDS011;2004;52.452;13.120;2023-03-24T14:44:03;6.47;;;1.43;;
3979;SDS011;2004;52.452;13.120;2023-03-24T14:52:30;1.83;;;0.97;;
3979;SDS011;2004;52.452;13.120;2023-03-24T15:00:18;3.20;;;1.30;;
3979;SDS011;2004;52.452;13.120;2023-03-24T15:08:25;5.17;;;1.10;;
3979;SDS011;2004;52.452;13.120;2023-03-24T15:16:17;5.77;;;1.60;;
3979;SDS011;2004;52.452;13.120;2023-03-24T15:32:21;5.53;;;1.30;;
3979;SDS011;2004;52.452;13.120;2023-03-24T15:48:17;8.20;;;1.60;;
3979;SDS011;2004;52.452;13.120;2023-03-24T16:04:02;6.43;;;1.90;;
3979;SDS011;2004;52.452;13.120;2023-03-24T16:11:55;3.27;;;1.67;;
3979;SDS011;2004;52.452;13.120;2023-03-24T16:19:46;11.83;;;2.33;;
3979;SDS011;2004;52.452;13.120;2023-03-24T16:27:37;4.77;;;1.60;;
3979;SDS011;2004;52.452;13.120;2023-03-24T16:35:27;6.80;;;2.20;;
3979;SDS011;2004;52.452;13.120;2023-03-24T16:43:18;4.17;;;1.93;;
3979;SDS011;2004;52.452;13.120;2023-03-24T16:51:10;6.80;;;2.30;;
3979;SDS011;2004;52.452;13.120;2023-03-24T16:59:03;4.00;;;2.10;;
3979;SDS011;2004;52.452;13.120;2023-03-24T17:06:55;8.67;;;2.70;;
3979;SDS011;2004;52.452;13.120;2023-03-24T17:14:45;7.17;;;2.70;;
3979;SDS011;2004;52.452;13.120;2023-03-24T17:22:36;5.10;;;2.07;;
3979;SDS011;2004;52.452;13.120;2023-03-24T17:30:27;5.80;;;2.30;;
3979;SDS011;2004;52.452;13.120;2023-03-24T17:38:18;4.57;;;2.63;;
3979;SDS011;2004;52.452;13.120;2023-03-24T17:46:09;6.73;;;2.23;;
3979;SDS011;2004;52.452;13.120;2023-03-24T17:54:00;3.47;;;2.23;;
3979;SDS011;2004;52.452;13.120;2023-03-24T18:01:51;4.03;;;2.60;;
3979;SDS011;2004;52.452;13.120;2023-03-24T18:09:42;8.33;;;2.80;;
3979;SDS011;2004;52.452;13.120;2023-03-24T18:17:32;10.70;;;4.93;;
3979;SDS011;2004;52.452;13.120;2023-03-24T18:25:23;8.33;;;3.73;;
3979;SDS011;2004;52.452;13.120;2023-03-24T18:33:14;8.53;;;3.40;;
3979;SDS011;2004;52.452;13.120;2023-03-24T18:41:05;6.90;;;4.30;;
3979;SDS011;2004;52.452;13.120;2023-03-24T18:48:57;7.23;;;4.63;;
3979;SDS011;2004;52.452;13.120;2023-03-24T18:56:47;8.70;;;4.37;;
3979;SDS011;2004;52.452;13.120;2023-03-24T19:04:38;7.67;;;4.00;;
3979;SDS011;2004;52.452;13.120;2023-03-24T19:12:29;9.83;;;3.73;;
3979;SDS011;2004;52.452;13.120;2023-03-24T19:20:19;9.50;;;3.40;;
3979;SDS011;2004;52.452;13.120;2023-03-24T19:28:10;8.33;;;3.30;;
3979;SDS011;2004;52.452;13.120;2023-03-24T19:36:01;6.50;;;3.67;;
3979;SDS011;2004;52.452;13.120;2023-03-24T19:43:52;7.90;;;3.63;;
3979;SDS011;2004;52.452;13.120;2023-03-24T19:51:43;8.17;;;3.10;;
3979;SDS011;2004;52.452;13.120;2023-03-24T19:59:33;5.90;;;2.37;;
3979;SDS011;2004;52.452;13.120;2023-03-24T20:07:25;7.60;;;1.97;;
3979;SDS011;2004;52.452;13.120;2023-03-24T20:15:15;2.50;;;1.67;;
3979;SDS011;2004;52.452;13.120;2023-03-24T20:23:06;5.70;;;1.70;;
3979;SDS011;2004;52.452;13.120;2023-03-24T20:30:59;6.20;;;1.80;;
3979;SDS011;2004;52.452;13.120;2023-03-24T20:38:51;8.17;;;2.67;;
3979;SDS011;2004;52.452;13.120;2023-03-24T20:46:41;3.83;;;2.87;;
3979;SDS011;2004;52.452;13.120;2023-03-24T20:54:32;7.40;;;2.43;;
3979;SDS011;2004;52.452;13.120;2023-03-24T21:02:23;6.50;;;3.47;;
3979;SDS011;2004;52.452;13.120;2023-03-24T21:10:13;7.20;;;2.30;;
3979;SDS011;2004;52.452;13.120;2023-03-24T21:18:04;2.73;;;2.40;;
3979;SDS011;2004;52.452;13.120;2023-03-24T21:25:55;6.57;;;2.00;;
3979;SDS011;2004;52.452;13.120;2023-03-24T21:33:46;6.10;;;2.27;;
3979;SDS011;2004;52.452;13.120;2023-03-24T21:41:37;3.77;;;2.00;;
3979;SDS011;2004;52.452;13.120;2023-03-24T21:49:27;4.20;;;2.27;;
3979;SDS011;2004;52.452;13.120;2023-03-24T21:57:18;6.97;;;2.37;;
3979;SDS011;2004;52.452;13.120;2023-03-24T22:05:09;8.20;;;2.93;;
3979;SDS011;2004;52.452;13.120;2023-03-24T22:13:04;4.00;;;2.60;;
3979;SDS011;2004;52.452;13.120;2023-03-24T22:20:55;2.17;;;1.97;;
3979;SDS011;2004;52.452;13.120;2023-03-24T22:28:49;7.40;;;2.47;;
3979;SDS011;2004;52.452;13.120;2023-03-24T22:36:40;4.67;;;2.63;;
3979;SDS011;2004;52.452;13.120;2023-03-24T22:44:31;4.20;;;2.53;;
3979;SDS011;2004;52.452;13.120;2023-03-24T22:52:22;4.93;;;2.80;;
3979;SDS011;2004;52.452;13.120;2023-03-24T23:00:13;4.17;;;2.30;;
3979;SDS011;2004;52.452;13.120;2023-03-24T23:08:05;8.43;;;2.33;;
3979;SDS011;2004;52.452;13.120;2023-03-24T23:15:56;2.90;;;2.00;;
3979;SDS011;2004;52.452;13.120;2023-03-24T23:23:47;2.43;;;1.90;;
3979;SDS011;2004;52.452;13.120;2023-03-24T23:31:37;5.80;;;2.00;;
3979;SDS011;2004;52.452;13.120;2023-03-24T23:39:30;1.77;;;1.37;;
3979;SDS011;2004;52.452;13.120;2023-03-24T23:47:25;4.40;;;1.53;;
3979;SDS011;2004;52.452;13.120;2023-03-24T23:55:18;2.53;;;1.70;;
